Time;durP1;ratioP1;P1;durP2;ratioP2;P2;SDS_P1;SDS_P2;PMS_P1;PMS_P2;Temp;Humidity;BMP_temperature;BMP_pressure;BME280_temperature;BME280_humidity;BME280_pressure;Samples;Min_cycle;Max_cycle;Signal;HPM_P1;HPM_P2
2021/09/12 00:02:10;;;;;;;;;;;;;;;17.79;74.91;100185.59;5035504;28;20396;-62
2021/09/12 00:04:59;;;;;;;;;;;;;;;17.77;74.95;100190.84;5035709;28;19928;-62
2021/09/12 00:07:46;;;;;;;;;;;;;;;17.77;74.93;100189.97;5035437;28;19974;-62
2021/09/12 00:10:36;;;;;;;;;;;;;;;17.76;74.92;100190.88;5034437;28;19928;-62
2021/09/12 00:13:25;;;;;;;;;;;;;;;17.74;75.18;100187.38;5048999;28;19951;-62
2021/09/12 00:16:18;;;;;;;;;;;;;;;17.74;74.85;100192.63;5048201;28;19990;-64
2021/09/12 00:19:10;;;;;;;;;;;;;;;17.72;74.90;100189.16;5035479;28;19928;-64
2021/09/12 00:22:03;;;;;;;;;;;;;;;17.71;74.95;100195.28;5048639;28;19991;-64
2021/09/12 00:24:48;;;;;;;;;;;;;;;17.70;74.88;100190.91;5048664;28;19929;-64
2021/09/12 00:27:35;;;;;;;;;;;;;;;17.69;75.05;100179.59;5035601;28;19967;-64
2021/09/12 00:30:24;;;;;;;;;;;;;;;17.69;74.92;100173.47;5048531;28;19928;-63
2021/09/12 00:33:14;;;;;;;;;;;;;;;17.67;74.89;100170.88;5048711;28;20288;-63
2021/09/12 00:36:04;;;;;;;;;;;;;;;17.67;74.95;100170.03;5049249;28;19971;-62
2021/09/12 00:38:59;;;;;;;;;;;;;;;17.64;74.87;100177.03;5048251;28;19944;-64
2021/09/12 00:41:44;;;;;;;;;;;;;;;17.64;74.81;100166.53;5048304;28;19928;-62
2021/09/12 00:44:36;;;;;;;;;;;;;;;17.63;74.91;100167.41;5048432;28;19927;-62
2021/09/12 00:47:25;;;;;;;;;;;;;;;17.63;74.91;100167.41;5048478;28;19992;-63
2021/09/12 00:50:09;;;;;;;;;;;;;;;17.63;74.94;100167.41;5048038;28;20056;-63
2021/09/12 00:52:59;;;;;;;;;;;;;;;17.63;74.90;100174.41;5047495;28;20448;-63
2021/09/12 00:55:46;;;;;;;;;;;;;;;17.62;74.83;100175.28;5048464;28;19979;-62
2021/09/12 00:58:40;;;;;;;;;;;;;;;17.61;74.85;100179.66;5048057;28;19929;-63
2021/09/12 01:01:28;;;;;;;;;;;;;;;17.59;74.85;100176.19;5034434;28;20296;-62
2021/09/12 01:04:20;;;;;;;;;;;;;;;17.59;74.85;100173.56;5034637;28;19929;-63
2021/09/12 01:07:09;;;;;;;;;;;;;;;17.57;74.73;100167.47;5048046;28;19927;-63
2021/09/12 01:10:02;;;;;;;;;;;;;;;17.55;74.92;100169.25;5047745;28;19927;-63
2021/09/12 01:12:54;;;;;;;;;;;;;;;17.56;74.76;100172.75;5047660;28;20284;-62
2021/09/12 01:15:38;;;;;;;;;;;;;;;17.55;75.04;100165.78;5047259;28;20300;-63
2021/09/12 01:18:22;;;;;;;;;;;;;;;17.53;74.92;100168.38;5034692;28;20357;-62
2021/09/12 01:21:19;;;;;;;;;;;;;;;17.53;75.01;100170.16;5047309;28;20017;-63
2021/09/12 01:24:12;;;;;;;;;;;;;;;17.53;74.93;100172.78;5047788;28;19971;-63
2021/09/12 01:27:02;;;;;;;;;;;;;;;17.50;74.91;100166.69;5047402;28;19979;-64
2021/09/12 01:29:54;;;;;;;;;;;;;;;17.50;74.85;100165.81;5047318;28;19944;-63
2021/09/12 01:32:39;;;;;;;;;;;;;;;17.49;74.77;100164.09;5047113;28;20014;-64
2021/09/12 01:35:25;;;;;;;;;;;;;;;17.49;74.81;100161.47;5047315;28;20020;-64
2021/09/12 01:38:09;;;;;;;;;;;;;;;17.47;74.85;100158.84;5033744;28;20453;-64
2021/09/12 01:40:53;;;;;;;;;;;;;;;17.47;74.77;100150.13;5033961;28;19928;-63
2021/09/12 01:43:57;;;;;;;;;;;;;;;17.46;74.81;100159.72;5034268;28;19929;-64
2021/09/12 01:46:49;;;;;;;;;;;;;;;17.44;74.86;100158.88;5046723;28;19927;-64
2021/09/12 01:49:45;;;;;;;;;;;;;;;17.43;74.81;100167.66;5046893;28;19948;-62
2021/09/12 01:52:37;;;;;;;;;;;;;;;17.42;74.57;100165.03;5033756;28;19927;-63
2021/09/12 01:55:21;;;;;;;;;;;;;;;17.40;74.67;100156.31;5046843;28;20396;-63
2021/09/12 01:58:08;;;;;;;;;;;;;;;17.39;74.54;100159.81;5034152;28;19947;-62
2021/09/12 02:01:00;;;;;;;;;;;;;;;17.37;74.69;100164.19;5047173;28;19983;-62
2021/09/12 02:03:45;;;;;;;;;;;;;;;17.34;74.61;100163.38;5033905;28;19975;-64
2021/09/12 02:06:35;;;;;;;;;;;;;;;17.32;74.96;100164.25;5047135;28;19975;-62
2021/09/12 02:09:27;;;;;;;;;;;;;;;17.31;74.60;100158.16;5046871;28;19928;-62
2021/09/12 02:12:19;;;;;;;;;;;;;;;17.30;74.51;100151.19;5046725;28;19928;-64
2021/09/12 02:15:06;;;;;;;;;;;;;;;17.29;74.50;100153.78;5046846;28;19928;-64
2021/09/12 02:17:50;;;;;;;;;;;;;;;17.28;74.52;100160.78;5033620;28;19928;-64
2021/09/12 02:20:41;;;;;;;;;;;;;;;17.26;74.63;100159.09;5034006;28;19928;-63
2021/09/12 02:23:31;;;;;;;;;;;;;;;17.24;74.45;100151.22;5046938;28;19971;-63
2021/09/12 02:26:15;;;;;;;;;;;;;;;17.23;74.53;100154.72;5033194;28;19932;-62
2021/09/12 02:29:04;;;;;;;;;;;;;;;17.21;74.57;100151.25;5047059;28;20026;-63
2021/09/12 02:31:54;;;;;;;;;;;;;;;17.18;74.41;100144.28;5046944;28;19929;-64
2021/09/12 02:34:40;;;;;;;;;;;;;;;17.19;74.41;100153.03;5049861;28;20279;-64
2021/09/12 02:37:27;;;;;;;;;;;;;;;17.17;74.33;100154.81;5050607;28;20066;-64
2021/09/12 02:40:20;;;;;;;;;;;;;;;17.15;74.36;100157.41;5050621;28;19928;-64
2021/09/12 02:43:06;;;;;;;;;;;;;;;17.14;74.29;100150.44;5050775;28;20284;-64
2021/09/12 02:45:53;;;;;;;;;;;;;;;17.13;74.41;100153.94;5049831;28;19928;-64
2021/09/12 02:48:39;;;;;;;;;;;;;;;17.13;74.27;100148.69;5036928;28;19928;-64
2021/09/12 02:51:24;;;;;;;;;;;;;;;17.12;74.27;100153.97;5036995;28;20022;-64
2021/09/12 02:54:07;;;;;;;;;;;;;;;17.11;74.32;100162.69;5037428;28;20276;-64
2021/09/12 02:56:54;;;;;;;;;;;;;;;17.09;74.10;100161.84;5050521;28;19944;-63
2021/09/12 02:59:41;;;;;;;;;;;;;;;17.08;74.17;100160.09;5049951;28;20295;-63
2021/09/12 03:02:31;;;;;;;;;;;;;;;17.07;74.28;100151.41;5036560;28;19971;-62
2021/09/12 03:05:15;;;;;;;;;;;;;;;17.05;74.10;100155.78;5049696;28;19932;-63
2021/09/12 03:08:04;;;;;;;;;;;;;;;17.03;74.13;100155.78;5037218;28;20015;-63
2021/09/12 03:10:57;;;;;;;;;;;;;;;17.02;74.05;100164.53;5036272;28;20340;-62
2021/09/12 03:13:46;;;;;;;;;;;;;;;17.02;74.20;100164.53;5050455;28;20039;-62
2021/09/12 03:16:33;;;;;;;;;;;;;;;17.03;74.06;100158.41;5050009;28;19928;-62
2021/09/12 03:19:17;;;;;;;;;;;;;;;17.02;74.15;100161.03;5049828;28;19932;-62
2021/09/12 03:22:01;;;;;;;;;;;;;;;17.02;74.11;100158.41;5036120;28;20017;-63
2021/09/12 03:24:47;;;;;;;;;;;;;;;17.00;74.18;100157.56;5036752;28;19927;-63
2021/09/12 03:27:33;;;;;;;;;;;;;;;17.01;74.18;100154.94;5035962;28;19928;-63
2021/09/12 03:30:20;;;;;;;;;;;;;;;16.99;73.92;100158.44;5035960;28;19928;-63
2021/09/12 03:33:07;;;;;;;;;;;;;;;16.99;74.14;100156.69;5049800;28;19928;-62
2021/09/12 03:35:57;;;;;;;;;;;;;;;16.99;74.21;100154.09;5048989;28;19967;-64
2021/09/12 03:38:46;;;;;;;;;;;;;;;16.99;73.78;100154.09;5049420;28;20004;-62
2021/09/12 03:41:30;;;;;;;;;;;;;;;16.99;74.08;100151.47;5049348;28;20026;-63
2021/09/12 03:44:14;;;;;;;;;;;;;;;17.00;74.33;100153.19;5035861;28;19928;-62
2021/09/12 03:47:03;;;;;;;;;;;;;;;17.00;74.04;100158.44;5049273;28;20355;-63
2021/09/12 03:49:53;;;;;;;;;;;;;;;17.00;74.20;100152.31;5049359;28;19976;-64
2021/09/12 03:52:43;;;;;;;;;;;;;;;17.00;74.13;100153.19;5048898;28;19927;-63
2021/09/12 03:55:29;;;;;;;;;;;;;;;17.00;74.17;100155.81;5049306;28;20303;-64
2021/09/12 03:58:16;;;;;;;;;;;;;;;17.01;74.06;100157.56;5049046;28;19967;-64
2021/09/12 04:01:03;;;;;;;;;;;;;;;17.00;74.13;100155.81;5049276;28;19997;-62
2021/09/12 04:03:47;;;;;;;;;;;;;;;17.00;74.25;100147.97;5036507;28;19975;-63
2021/09/12 04:06:34;;;;;;;;;;;;;;;17.00;74.19;100153.19;5035231;28;19928;-62
2021/09/12 04:09:18;;;;;;;;;;;;;;;17.00;74.18;100147.97;5049135;28;19928;-62
2021/09/12 04:12:02;;;;;;;;;;;;;;;16.99;74.04;100145.34;5036037;28;19943;-63
2021/09/12 04:14:53;;;;;;;;;;;;;;;16.98;74.12;100147.09;5035442;28;19991;-62
2021/09/12 04:17:40;;;;;;;;;;;;;;;16.98;73.99;100146.22;5035646;28;20423;-62
2021/09/12 04:20:27;;;;;;;;;;;;;;;16.99;73.96;100150.56;5035759;28;19928;-62
2021/09/12 04:23:14;;;;;;;;;;;;;;;16.98;74.09;100151.47;5035312;28;19928;-62
2021/09/12 04:25:58;;;;;;;;;;;;;;;16.99;73.87;100153.19;5048627;28;19928;-62
2021/09/12 04:28:48;;;;;;;;;;;;;;;16.98;74.12;100148.84;5035046;28;19928;-62
2021/09/12 04:31:32;;;;;;;;;;;;;;;16.99;74.01;100155.81;5048342;28;19928;-64
2021/09/12 04:34:16;;;;;;;;;;;;;;;16.97;74.10;100153.22;5035549;28;20335;-63
2021/09/12 04:37:03;;;;;;;;;;;;;;;16.96;73.95;100146.25;5035273;28;19927;-62
2021/09/12 04:39:52;;;;;;;;;;;;;;;16.95;74.01;100154.97;5048307;28;19928;-62
2021/09/12 04:42:39;;;;;;;;;;;;;;;16.94;74.01;100150.59;5048106;28;20335;-62
2021/09/12 04:45:26;;;;;;;;;;;;;;;16.92;73.98;100149.72;5048229;28;20296;-62
2021/09/12 04:48:16;;;;;;;;;;;;;;;16.92;73.96;100154.97;5048596;28;19928;-63
2021/09/12 04:51:03;;;;;;;;;;;;;;;16.91;74.07;100168.94;5047880;28;19928;-62
2021/09/12 04:53:50;;;;;;;;;;;;;;;16.90;73.89;100162.84;5048552;28;19929;-63
2021/09/12 04:56:37;;;;;;;;;;;;;;;16.90;73.95;100155.00;5047315;28;19963;-63
2021/09/12 04:59:21;;;;;;;;;;;;;;;16.86;73.90;100160.28;5047480;28;19967;-62
2021/09/12 05:02:05;;;;;;;;;;;;;;;16.87;73.88;100162.00;5034639;28;19979;-63
2021/09/12 05:04:54;;;;;;;;;;;;;;;16.83;73.80;100166.38;5034262;28;19928;-64
2021/09/12 05:07:43;;;;;;;;;;;;;;;16.83;73.87;100155.06;5047646;28;20395;-64
2021/09/12 05:10:33;;;;;;;;;;;;;;;16.80;73.74;100162.94;5048310;28;19928;-63
2021/09/12 05:13:22;;;;;;;;;;;;;;;16.79;73.79;100166.41;5047863;28;19932;-64
2021/09/12 05:16:06;;;;;;;;;;;;;;;16.77;73.71;100161.22;5047409;28;19968;-64
2021/09/12 05:18:56;;;;;;;;;;;;;;;16.75;73.60;100163.81;5034163;28;20020;-64
2021/09/12 05:21:42;;;;;;;;;;;;;;;16.73;73.65;100162.09;5047758;28;19928;-64
2021/09/12 05:24:26;;;;;;;;;;;;;;;16.73;73.60;100167.34;5034359;28;19928;-64
2021/09/12 05:27:10;;;;;;;;;;;;;;;16.72;73.57;100173.44;5047072;28;20304;-64
2021/09/12 05:29:54;;;;;;;;;;;;;;;16.69;73.57;100171.72;5034616;28;19967;-64
2021/09/12 05:32:45;;;;;;;;;;;;;;;16.69;73.62;100178.69;5034508;28;19928;-64
2021/09/12 05:35:32;;;;;;;;;;;;;;;16.67;73.53;100172.59;5047618;28;19928;-64
2021/09/12 05:38:16;;;;;;;;;;;;;;;16.67;73.47;100185.69;5047152;28;20403;-64
2021/09/12 05:41:00;;;;;;;;;;;;;;;16.63;73.36;100179.63;5034388;28;19928;-64
2021/09/12 05:43:47;;;;;;;;;;;;;;;16.65;73.38;100177.00;5033875;28;19927;-64
2021/09/12 05:46:36;;;;;;;;;;;;;;;16.64;73.39;100181.34;5033806;28;20023;-64
2021/09/12 05:49:20;;;;;;;;;;;;;;;16.62;73.22;100175.25;5047413;28;20375;-64
2021/09/12 05:52:09;;;;;;;;;;;;;;;16.63;73.27;100187.47;5034505;28;20406;-64
2021/09/12 05:54:55;;;;;;;;;;;;;;;16.62;73.50;100187.50;5046549;28;19975;-64
2021/09/12 05:57:42;;;;;;;;;;;;;;;16.63;73.31;100194.47;5046875;28;19978;-64
2021/09/12 06:00:26;;;;;;;;;;;;;;;16.61;73.22;100198.81;5033877;28;20422;-64
2021/09/12 06:03:16;;;;;;;;;;;;;;;16.61;73.43;100197.06;5046643;28;19928;-64
2021/09/12 06:06:03;;;;;;;;;;;;;;;16.63;73.43;100205.78;5046688;28;19967;-64
2021/09/12 06:08:49;;;;;;;;;;;;;;;16.62;73.50;100198.81;5035313;28;19932;-64
2021/09/12 06:11:33;;;;;;;;;;;;;;;16.62;73.41;100198.81;5051097;28;20059;-64
2021/09/12 06:14:18;;;;;;;;;;;;;;;16.63;73.55;100205.78;5037514;28;19978;-64
2021/09/12 06:17:05;;;;;;;;;;;;;;;16.62;73.31;100201.41;5038147;28;19983;-64
2021/09/12 06:19:54;;;;;;;;;;;;;;;16.62;73.35;100204.03;5050726;28;19928;-64
2021/09/12 06:22:42;;;;;;;;;;;;;;;16.63;73.34;100202.31;5050828;28;20398;-63
2021/09/12 06:25:29;;;;;;;;;;;;;;;16.62;73.38;100204.03;5050412;28;20454;-63
2021/09/12 06:28:13;;;;;;;;;;;;;;;16.60;73.34;100192.72;5051059;28;19929;-64
2021/09/12 06:31:02;;;;;;;;;;;;;;;16.62;73.24;100195.34;5037197;28;19974;-64
2021/09/12 06:33:46;;;;;;;;;;;;;;;16.61;73.14;100188.38;5050448;28;19928;-64
2021/09/12 06:36:30;;;;;;;;;;;;;;;16.62;73.27;100195.34;5037487;28;20403;-63
2021/09/12 06:39:20;;;;;;;;;;;;;;;16.61;73.14;100196.22;5037462;28;19927;-64
2021/09/12 06:42:07;;;;;;;;;;;;;;;16.61;73.02;100202.28;5050325;28;20387;-64
2021/09/12 06:44:51;;;;;;;;;;;;;;;16.59;72.82;100196.19;5050701;28;20012;-64
2021/09/12 06:47:41;;;;;;;;;;;;;;;16.59;73.17;100202.31;5037554;28;19956;-64
2021/09/12 06:50:34;;;;;;;;;;;;;;;16.59;73.24;100199.72;5050107;28;20087;-64
2021/09/12 06:53:21;;;;;;;;;;;;;;;16.61;72.98;100199.69;5050464;28;20308;-64
2021/09/12 06:56:10;;;;;;;;;;;;;;;16.64;73.07;100201.44;5037081;28;19967;-64
2021/09/12 06:58:57;;;;;;;;;;;;;;;16.64;73.25;100201.44;5050073;28;19952;-64
2021/09/12 07:01:41;;;;;;;;;;;;;;;16.64;73.05;100199.66;5037182;28;20376;-64
2021/09/12 07:04:30;;;;;;;;;;;;;;;16.63;73.01;100203.16;5037041;28;19971;-64
2021/09/12 07:07:23;;;;;;;;;;;;;;;16.63;73.22;100203.16;5049899;28;19970;-64
2021/09/12 07:10:13;;;;;;;;;;;;;;;16.62;72.94;100196.19;5050170;28;20315;-64
2021/09/12 07:13:02;;;;;;;;;;;;;;;16.63;72.94;100211.00;5037011;28;19928;-64
2021/09/12 07:15:57;;;;;;;;;;;;;;;16.64;73.03;100211.91;5049979;28;20340;-64
2021/09/12 07:18:49;;;;;;;;;;;;;;;16.63;72.86;100213.63;5036384;28;19943;-64
2021/09/12 07:21:41;;;;;;;;;;;;;;;16.64;73.07;100215.38;5050170;28;19944;-64
2021/09/12 07:24:25;;;;;;;;;;;;;;;16.64;73.00;100212.75;5050179;28;20602;-64
2021/09/12 07:27:09;;;;;;;;;;;;;;;16.63;73.12;100205.78;5036561;28;20280;-64
2021/09/12 07:29:58;;;;;;;;;;;;;;;16.63;73.08;100205.78;5049541;28;20011;-63
2021/09/12 07:32:42;;;;;;;;;;;;;;;16.62;72.88;100206.66;5049901;28;19928;-63
2021/09/12 07:35:31;;;;;;;;;;;;;;;16.63;73.05;100205.78;5036317;28;19927;-64
2021/09/12 07:38:15;;;;;;;;;;;;;;;16.63;72.94;100203.16;5049711;28;19932;-63
2021/09/12 07:41:05;;;;;;;;;;;;;;;16.64;72.96;100204.03;5036204;28;19929;-63
2021/09/12 07:43:59;;;;;;;;;;;;;;;16.64;72.94;100209.28;5036058;28;19928;-62
2021/09/12 07:46:48;;;;;;;;;;;;;;;16.64;72.82;100204.91;5049272;28;19967;-62
2021/09/12 07:49:35;;;;;;;;;;;;;;;16.64;72.89;100215.38;5049418;28;19929;-62
2021/09/12 07:52:19;;;;;;;;;;;;;;;16.64;72.82;100212.75;5049299;28;19974;-63
2021/09/12 07:55:09;;;;;;;;;;;;;;;16.65;72.79;100208.41;5049008;28;19971;-64
2021/09/12 07:58:15;;;;;;;;;;;;;;;16.65;72.70;100204.03;5049276;28;19927;-63
2021/09/12 08:01:07;;;;;;;;;;;;;;;16.67;72.87;100206.63;5035694;28;20367;-62
2021/09/12 08:03:54;;;;;;;;;;;;;;;16.66;72.82;100210.16;5049305;28;20408;-64
2021/09/12 08:06:44;;;;;;;;;;;;;;;16.65;72.65;100206.66;5049176;28;20511;-63
2021/09/12 08:09:32;;;;;;;;;;;;;;;16.67;72.46;100215.34;5035739;28;19928;-63
2021/09/12 08:12:16;;;;;;;;;;;;;;;16.67;72.44;100219.69;5048949;28;19983;-64
2021/09/12 08:15:00;;;;;;;;;;;;;;;16.66;72.40;100211.00;5049187;28;19971;-64
2021/09/12 08:17:44;;;;;;;;;;;;;;;16.66;72.60;100200.53;5049001;28;20012;-64
2021/09/12 08:20:33;;;;;;;;;;;;;;;16.66;72.53;100207.53;5035789;28;19975;-63
2021/09/12 08:23:26;;;;;;;;;;;;;;;16.68;72.46;100205.75;5048854;28;20096;-62
2021/09/12 08:26:10;;;;;;;;;;;;;;;16.67;72.35;100211.84;5048698;28;20063;-62
2021/09/12 08:28:59;;;;;;;;;;;;;;;16.66;72.30;100205.75;5035192;28;20355;-63
2021/09/12 08:31:46;;;;;;;;;;;;;;;16.67;72.38;100211.84;5047785;28;19928;-62
2021/09/12 08:34:33;;;;;;;;;;;;;;;16.68;72.10;100214.47;5048018;28;19968;-63
2021/09/12 08:37:19;;;;;;;;;;;;;;;16.69;72.29;100211.00;5035265;28;19936;-65
2021/09/12 08:40:12;;;;;;;;;;;;;;;16.72;72.40;100217.94;5035146;28;20360;-63
2021/09/12 08:43:01;;;;;;;;;;;;;;;16.72;72.30;100224.06;5048456;28;20012;-64
2021/09/12 08:45:53;;;;;;;;;;;;;;;16.75;72.26;100220.53;5048164;28;19928;-64
2021/09/12 08:48:46;;;;;;;;;;;;;;;16.74;71.93;100231.88;5034513;28;19928;-64
2021/09/12 08:51:32;;;;;;;;;;;;;;;16.76;72.10;100227.50;5048418;28;19967;-64
2021/09/12 08:54:19;;;;;;;;;;;;;;;16.79;71.99;100231.84;5048056;28;19978;-64
2021/09/12 08:57:06;;;;;;;;;;;;;;;16.80;72.09;100229.25;5035228;28;19928;-64
2021/09/12 08:59:50;;;;;;;;;;;;;;;16.82;71.92;100223.97;5035056;28;19959;-64
2021/09/12 09:02:41;;;;;;;;;;;;;;;16.84;72.06;100230.06;5034764;28;19928;-64
2021/09/12 09:05:43;;;;;;;;;;;;;;;16.86;71.87;100233.56;5047698;28;19928;-64
2021/09/12 09:08:27;;;;;;;;;;;;;;;16.85;71.90;100232.66;5047570;28;19928;-63
2021/09/12 09:11:11;;;;;;;;;;;;;;;16.89;71.96;100239.63;5047622;28;20453;-63
2021/09/12 09:14:01;;;;;;;;;;;;;;;16.90;71.90;100237.88;5034915;28;19928;-64
2021/09/12 09:16:55;;;;;;;;;;;;;;;16.92;71.97;100228.25;5047662;28;19932;-62
2021/09/12 09:19:55;;;;;;;;;;;;;;;16.91;71.85;100231.75;5047560;28;19976;-62
2021/09/12 09:22:47;;;;;;;;;;;;;;;16.93;71.87;100227.38;5047872;28;19971;-62
2021/09/12 09:25:31;;;;;;;;;;;;;;;16.95;71.65;100223.03;5047482;28;19929;-62
2021/09/12 09:28:15;;;;;;;;;;;;;;;16.97;71.78;100223.06;5047412;28;19928;-63
2021/09/12 09:31:10;;;;;;;;;;;;;;;16.98;71.65;100233.50;5047680;28;19967;-63
2021/09/12 09:34:16;;;;;;;;;;;;;;;16.99;71.62;100219.53;5047797;28;19944;-63
2021/09/12 09:37:10;;;;;;;;;;;;;;;17.01;71.57;100225.63;5033791;28;19928;-64
2021/09/12 09:39:55;;;;;;;;;;;;;;;17.03;71.62;100225.59;5033969;28;20407;-64
2021/09/12 09:42:40;;;;;;;;;;;;;;;17.03;71.52;100221.25;5047396;28;19932;-64
2021/09/12 09:45:25;;;;;;;;;;;;;;;17.05;71.53;100216.84;5033634;28;19928;-62
2021/09/12 09:48:17;;;;;;;;;;;;;;;17.08;71.55;100226.44;5034308;28;19928;-63
2021/09/12 09:51:07;;;;;;;;;;;;;;;17.08;71.47;100212.47;5046817;28;20021;-63
2021/09/12 09:54:00;;;;;;;;;;;;;;;17.11;71.46;100220.31;5046957;28;20296;-63
2021/09/12 09:56:55;;;;;;;;;;;;;;;17.10;71.34;100208.97;5047370;28;19971;-62
2021/09/12 09:59:48;;;;;;;;;;;;;;;17.12;71.32;100212.47;5033591;28;20032;-63
2021/09/12 10:02:37;;;;;;;;;;;;;;;17.15;71.38;100206.31;5047146;28;20284;-62
2021/09/12 10:05:27;;;;;;;;;;;;;;;17.17;71.23;100201.94;5033956;28;19968;-62
2021/09/12 10:08:15;;;;;;;;;;;;;;;17.18;71.19;100204.53;5046841;28;19928;-62
2021/09/12 10:11:00;;;;;;;;;;;;;;;17.21;71.08;100208.84;5047209;28;19971;-62
2021/09/12 10:13:45;;;;;;;;;;;;;;;17.23;71.33;100204.47;5047059;28;20395;-62
2021/09/12 10:16:38;;;;;;;;;;;;;;;17.25;71.07;100196.63;5047364;28;20020;-63
2021/09/12 10:19:41;;;;;;;;;;;;;;;17.26;71.22;100206.22;5046868;28;20483;-62
2021/09/12 10:22:33;;;;;;;;;;;;;;;17.27;71.07;100203.59;5047233;28;19967;-62
2021/09/12 10:25:21;;;;;;;;;;;;;;;17.30;71.11;100205.28;5046594;28;20407;-63
2021/09/12 10:28:11;;;;;;;;;;;;;;;17.31;71.13;100199.19;5047143;28;19928;-62
2021/09/12 10:31:18;;;;;;;;;;;;;;;17.33;71.10;100208.78;5046395;28;20299;-63
2021/09/12 10:34:08;;;;;;;;;;;;;;;17.33;70.84;100205.28;5047002;28;19967;-62
2021/09/12 10:37:17;;;;;;;;;;;;;;;17.34;70.89;100204.38;5046617;28;20455;-62
2021/09/12 10:40:04;;;;;;;;;;;;;;;17.35;70.95;100200.88;5046503;28;19928;-62
2021/09/12 10:42:48;;;;;;;;;;;;;;;17.35;70.97;100206.13;5033668;28;20304;-63
2021/09/12 10:45:32;;;;;;;;;;;;;;;17.39;70.81;100194.75;5046490;28;19971;-62
2021/09/12 10:48:23;;;;;;;;;;;;;;;17.40;70.79;100195.59;5033063;28;20454;-63
2021/09/12 10:51:07;;;;;;;;;;;;;;;17.43;70.68;100204.31;5046685;28;19927;-62
2021/09/12 10:53:54;;;;;;;;;;;;;;;17.44;70.73;100184.22;5032925;28;20300;-62
2021/09/12 10:56:46;;;;;;;;;;;;;;;17.45;70.68;100188.56;5050686;28;19928;-63
2021/09/12 10:59:36;;;;;;;;;;;;;;;17.48;70.72;100186.78;5050620;28;20426;-63
2021/09/12 11:02:24;;;;;;;;;;;;;;;17.49;70.68;100185.91;5036750;28;20472;-63
2021/09/12 11:05:26;;;;;;;;;;;;;;;17.49;70.53;100183.28;5049904;28;19928;-62
2021/09/12 11:08:16;;;;;;;;;;;;;;;17.52;70.61;100190.22;5050241;28;19969;-62
2021/09/12 11:11:00;;;;;;;;;;;;;;;17.54;70.69;100188.47;5050316;28;19974;-64
2021/09/12 11:13:46;;;;;;;;;;;;;;;17.54;70.63;100191.09;5036788;28;19928;-62
2021/09/12 11:16:36;;;;;;;;;;;;;;;17.57;70.62;100185.81;5036961;28;19928;-62
2021/09/12 11:19:31;;;;;;;;;;;;;;;17.58;70.61;100181.47;5050188;28;19974;-63
2021/09/12 11:22:23;;;;;;;;;;;;;;;17.58;70.67;100177.06;5049564;28;19930;-62
2021/09/12 11:25:10;;;;;;;;;;;;;;;17.59;70.57;100181.44;5049573;28;19967;-62
2021/09/12 11:28:06;;;;;;;;;;;;;;;17.61;70.53;100174.44;5049513;28;19928;-62
2021/09/12 11:30:50;;;;;;;;;;;;;;;17.63;70.54;100175.28;5036341;28;19932;-64
2021/09/12 11:33:49;;;;;;;;;;;;;;;17.66;70.65;100166.50;5049937;28;19967;-64
2021/09/12 11:37:05;;;;;;;;;;;;;;;17.68;70.51;100163.84;5049851;28;19967;-63
2021/09/12 11:39:55;;;;;;;;;;;;;;;17.70;70.34;100178.69;5033010;28;20020;-63
2021/09/12 11:42:39;;;;;;;;;;;;;;;17.72;70.38;100170.81;5049390;28;19928;-62
2021/09/12 11:45:23;;;;;;;;;;;;;;;17.73;70.53;100169.94;5036211;28;19932;-62
2021/09/12 11:48:13;;;;;;;;;;;;;;;17.74;70.58;100169.94;5036171;28;20350;-62
2021/09/12 11:51:02;;;;;;;;;;;;;;;17.76;70.27;100165.50;5049360;28;19967;-63
2021/09/12 11:53:49;;;;;;;;;;;;;;;17.78;70.40;100166.38;5049073;28;20035;-62
2021/09/12 11:56:38;;;;;;;;;;;;;;;17.79;70.25;100172.50;5049184;28;19928;-63
2021/09/12 11:59:22;;;;;;;;;;;;;;;17.81;70.24;100165.47;5049564;28;19971;-63
2021/09/12 12:02:22;;;;;;;;;;;;;;;17.80;70.48;100167.22;5049383;28;19936;-63
2021/09/12 12:05:13;;;;;;;;;;;;;;;17.83;70.46;100161.06;5048734;28;19932;-62
2021/09/12 12:08:04;;;;;;;;;;;;;;;17.87;70.45;100168.00;5048828;28;19947;-62
2021/09/12 12:10:48;;;;;;;;;;;;;;;17.88;70.25;100169.75;5035766;28;19928;-62
2021/09/12 12:13:34;;;;;;;;;;;;;;;17.89;70.29;100168.00;5035676;28;20008;-63
2021/09/12 12:16:24;;;;;;;;;;;;;;;17.89;70.40;100155.75;5035620;28;19928;-63
2021/09/12 12:19:15;;;;;;;;;;;;;;;17.91;70.29;100164.47;5049068;28;20395;-63
2021/09/12 12:22:03;;;;;;;;;;;;;;;17.94;70.38;100163.56;5035925;28;19983;-63
2021/09/12 12:24:51;;;;;;;;;;;;;;;17.95;70.20;100154.81;5034993;28;19975;-62
2021/09/12 12:27:38;;;;;;;;;;;;;;;17.96;70.30;100156.53;5035640;28;19990;-63
2021/09/12 12:30:25;;;;;;;;;;;;;;;17.95;70.10;100155.69;5048285;28;20002;-63
2021/09/12 12:33:10;;;;;;;;;;;;;;;17.95;70.33;100149.56;5048209;28;19982;-64
2021/09/12 12:36:07;;;;;;;;;;;;;;;17.98;70.27;100157.44;5034958;28;19928;-62
2021/09/12 12:38:54;;;;;;;;;;;;;;;17.96;70.30;100149.56;5048249;28;19928;-62
2021/09/12 12:41:55;;;;;;;;;;;;;;;17.96;70.21;100149.56;5048093;28;19935;-63
2021/09/12 12:44:50;;;;;;;;;;;;;;;17.95;70.30;100157.44;5048228;28;19929;-63
2021/09/12 12:47:42;;;;;;;;;;;;;;;17.96;70.27;100156.53;5048532;28;19928;-63
2021/09/12 12:50:35;;;;;;;;;;;;;;;17.95;70.27;100160.94;5048409;28;20079;-63
2021/09/12 12:53:39;;;;;;;;;;;;;;;17.96;70.31;100154.81;5034788;28;20438;-63
2021/09/12 12:56:32;;;;;;;;;;;;;;;17.95;70.21;100150.44;5034359;28;19928;-62
2021/09/12 12:59:22;;;;;;;;;;;;;;;17.94;70.24;100148.72;5034375;28;19983;-63
2021/09/12 13:02:11;;;;;;;;;;;;;;;17.95;70.21;100147.81;5047697;28;19927;-63
2021/09/12 13:04:55;;;;;;;;;;;;;;;17.95;70.11;100145.19;5047790;28;19928;-63
2021/09/12 13:07:39;;;;;;;;;;;;;;;17.96;70.23;100141.69;5034375;28;20407;-62
2021/09/12 13:10:23;;;;;;;;;;;;;;;17.98;70.16;100148.72;5034733;28;19928;-62
2021/09/12 13:13:07;;;;;;;;;;;;;;;17.97;70.30;100142.53;5034050;28;19928;-62
2021/09/12 13:15:57;;;;;;;;;;;;;;;17.96;70.31;100146.94;5034639;28;19975;-64
2021/09/12 13:18:49;;;;;;;;;;;;;;;17.96;70.32;100141.69;5047547;28;19928;-63
2021/09/12 13:21:42;;;;;;;;;;;;;;;17.95;70.26;100145.19;5034765;28;19931;-64
2021/09/12 13:24:34;;;;;;;;;;;;;;;17.96;70.34;100148.69;5048018;28;20284;-63
2021/09/12 13:27:27;;;;;;;;;;;;;;;17.96;70.34;100148.69;5047051;28;20296;-63
2021/09/12 13:30:19;;;;;;;;;;;;;;;17.95;70.23;100142.56;5047973;28;19929;-62
2021/09/12 13:33:11;;;;;;;;;;;;;;;17.95;70.41;100139.06;5047014;28;19928;-63
2021/09/12 13:36:03;;;;;;;;;;;;;;;17.95;70.48;100141.69;5047373;28;19947;-63
2021/09/12 13:38:48;;;;;;;;;;;;;;;17.95;70.44;100137.34;5047291;28;20462;-64
2021/09/12 13:41:32;;;;;;;;;;;;;;;17.95;70.27;100134.72;5034438;28;19948;-62
2021/09/12 13:44:24;;;;;;;;;;;;;;;17.95;70.40;100139.97;5033954;28;19928;-62
2021/09/12 13:47:16;;;;;;;;;;;;;;;17.95;70.31;100134.72;5047322;28;20375;-62
2021/09/12 13:50:06;;;;;;;;;;;;;;;17.95;70.51;100132.09;5034620;28;20021;-63
2021/09/12 13:52:58;;;;;;;;;;;;;;;17.94;70.47;100132.97;5046650;28;20414;-63
2021/09/12 13:55:42;;;;;;;;;;;;;;;17.96;70.26;100128.59;5047363;28;19928;-62
2021/09/12 13:58:31;;;;;;;;;;;;;;;17.98;70.35;100127.72;5033557;28;19933;-62
2021/09/12 14:01:21;;;;;;;;;;;;;;;18.00;70.46;100128.56;5033739;28;19928;-63
2021/09/12 14:04:11;;;;;;;;;;;;;;;18.00;70.38;100124.19;5046601;28;19974;-63
2021/09/12 14:07:01;;;;;;;;;;;;;;;18.03;70.38;100121.53;5046486;28;19928;-61
2021/09/12 14:09:45;;;;;;;;;;;;;;;18.06;70.42;100125.84;5047013;28;19928;-63
2021/09/12 14:12:29;;;;;;;;;;;;;;;18.05;70.25;100126.75;5033939;28;20016;-63
2021/09/12 14:15:18;;;;;;;;;;;;;;;18.06;70.44;100128.47;5034009;28;19929;-64
2021/09/12 14:18:13;;;;;;;;;;;;;;;18.05;70.46;100124.13;5046724;28;19928;-64
2021/09/12 14:21:06;;;;;;;;;;;;;;;18.04;70.39;100119.75;5046939;28;19928;-64
2021/09/12 14:24:01;;;;;;;;;;;;;;;18.03;70.48;100121.53;5047064;28;20372;-64
2021/09/12 14:26:56;;;;;;;;;;;;;;;18.04;70.43;100125.00;5046726;28;19928;-64